Crumpler, NC

12:01 PM EST on January 19, 2017 (GMT -0500)
Ashe County

Weather History for KGEV - January, 2007

Change the Weather History Date:

Monday, January 8, 2007

  Actual Average Record
Temperature  
Mean Temperature 43 °F -  
Max Temperature 53 °F 42 °F 62 °F (2008)
Min Temperature 33 °F 22 °F -6 °F (1970)
Degree Days  
Heating Degree Days 22    
Moisture  
Dew Point 23 °F    
Average Humidity 50    
Maximum Humidity 82    
Minimum Humidity 18    
Precipitation  
Precipitation 0.16 in - - ()
Sea Level Pressure  
Sea Level Pressure 29.86 in    
Wind  
Wind Speed 11 mph (West)    
Max Wind Speed 32 mph    
Max Gust Speed 45 mph    
Visibility 9 miles    
Events Rain    
Averages and records for this station are not official NWS values.
T = Trace of Precipitation, MM = Missing Value Source: NWS Daily Summary

Daily Weather History Graph

Daily Weather History Graph

Search for Another Location

Airport or City:

Trip Planner

Search our weather history database for the weather conditions in past years. The results will help you decide how hot, cold, wet, or windy it might be!

Date:

Astronomy

Jan. 08, 2007 Rise Set
Actual Time 7:37 AM EST 5:27 PM EST
Civil Twilight 7:09 AM EST 5:55 PM EST
Nautical Twilight 6:37 AM EST 6:27 PM EST
Astronomical Twilight 6:06 AM EST 6:58 PM EST
Moon 10:38 PM EST (1/8) 10:41 AM EST (1/8)
Length of Visible Light 10h 45m
Length of Day
9h 49m
Waning Gibbous, 75% of the Moon is Illuminated
Jan 8
Waning Gibbous
Jan 11
Last Quarter
Jan 18
New
Jan 25
First Quarter
Feb 2
Full

Hourly Weather History & Observations

Time (EST) Temp. Windchill Dew Point Humidity Pressure Visibility Wind Dir Wind Speed Gust Speed Precip Events Conditions
12:05 AM 53.6 °F - 44.6 °F 72% 29.85 in 10.0 mi SE 3.5 mph - 0.02 in Rain Rain
12:21 AM 53.6 °F - 42.8 °F 67% 29.82 in 10.0 mi SSE 3.5 mph - 0.04 in Rain Light Rain
12:41 AM 51.8 °F - 44.6 °F 76% 29.79 in 10.0 mi Calm Calm - 0.04 in Rain Light Rain
1:01 AM 51.8 °F - 46.4 °F 82% 29.80 in 7.0 mi Calm Calm - 0.01 in   Drizzle
1:21 AM 51.8 °F - 46.4 °F 82% 29.81 in 10.0 mi SSE 3.5 mph - 0.01 in Rain Light Rain
1:41 AM 51.8 °F - 46.4 °F 82% 29.82 in 3.0 mi Calm Calm - 0.02 in Rain Light Rain
2:01 AM 51.8 °F - 46.4 °F 82% 29.80 in 2.0 mi SE 3.5 mph - 0.01 in Rain Light Rain
2:21 AM 51.8 °F - 46.4 °F 82% 29.79 in 2.5 mi SSE 3.5 mph - 0.01 in Rain Light Rain
2:41 AM 51.8 °F - 46.4 °F 82% 29.77 in 2.5 mi South 3.5 mph - 0.02 in Rain Rain
3:01 AM 51.8 °F - 46.4 °F 82% 29.77 in 5.0 mi SSE 6.9 mph - 0.01 in Rain Light Rain
3:22 AM 53.6 °F - 48.2 °F 82% 29.75 in 7.0 mi SSE 4.6 mph - 0.02 in Rain Light Rain
3:41 AM 53.6 °F - 48.2 °F 82% 29.75 in 10.0 mi SSE 5.8 mph - 0.03 in Rain Light Rain
4:01 AM 53.6 °F - 48.2 °F 82% 29.76 in 10.0 mi West 9.2 mph - 0.01 in Rain Rain
4:21 AM 53.6 °F - 48.2 °F 82% 29.76 in 7.0 mi WSW 5.8 mph - 0.04 in Rain Light Rain
4:45 AM 53.6 °F - 46.4 °F 77% 29.77 in 10.0 mi West 8.1 mph - 0.06 in Rain Light Rain
5:01 AM 53.6 °F - 44.6 °F 72% 29.76 in 10.0 mi West 12.7 mph 17.3 mph N/A Rain Light Rain
5:21 AM 51.8 °F - 42.8 °F 71% 29.75 in 10.0 mi West 13.8 mph 23.0 mph N/A   Overcast
5:41 AM 51.8 °F - 42.8 °F 71% 29.78 in 10.0 mi West 15.0 mph 20.7 mph N/A   Overcast
6:01 AM 51.8 °F - 42.8 °F 71% 29.79 in 5.0 mi West 21.9 mph 29.9 mph 0.02 in Rain Rain
6:41 AM 44.6 °F 36.6 °F 37.4 °F 76% 29.82 in 4.0 mi NW 19.6 mph 35.7 mph 0.03 in Rain Light Rain
7:01 AM 42.8 °F 32.1 °F 37.4 °F 81% 29.82 in 7.0 mi WNW 31.1 mph 42.6 mph N/A   Drizzle
7:23 AM 42.8 °F 32.9 °F 33.8 °F 70% 29.84 in 7.0 mi West 26.5 mph 36.8 mph N/A   Drizzle
7:42 AM 41.0 °F 31.6 °F 30.2 °F 65% 29.86 in 10.0 mi West 20.7 mph 33.4 mph N/A   Overcast
8:01 AM 41.0 °F 33.5 °F 30.2 °F 65% 29.86 in 10.0 mi West 13.8 mph 32.2 mph N/A   Overcast
8:21 AM 41.0 °F 31.6 °F 28.4 °F 61% 29.85 in 10.0 mi WNW 20.7 mph 27.6 mph N/A   Scattered Clouds
8:41 AM 41.0 °F 32.8 °F 28.4 °F 61% 29.86 in 10.0 mi WNW 16.1 mph 31.1 mph N/A   Scattered Clouds
9:03 AM 39.2 °F 28.5 °F 26.6 °F 61% 29.86 in 10.0 mi WNW 24.2 mph 32.2 mph N/A   Mostly Cloudy
9:21 AM 39.2 °F 32.5 °F 26.6 °F 61% 29.86 in 10.0 mi WNW 10.4 mph 25.3 mph N/A   Overcast
10:01 AM 39.2 °F 30.2 °F 26.6 °F 61% 29.84 in 10.0 mi WNW 17.3 mph 44.9 mph N/A   Mostly Cloudy
10:21 AM 39.2 °F 29.8 °F 24.8 °F 56% 29.84 in 10.0 mi WNW 18.4 mph 35.7 mph N/A   Mostly Cloudy
10:41 AM 41.0 °F 30.7 °F 23.0 °F 49% 29.84 in 10.0 mi WNW 25.3 mph 36.8 mph N/A   Scattered Clouds
11:01 AM 41.0 °F 31.6 °F 21.2 °F 45% 29.85 in 10.0 mi NW 20.7 mph 34.5 mph N/A   Clear
11:21 AM 41.0 °F 32.8 °F 21.2 °F 45% 29.86 in 10.0 mi WNW 16.1 mph 28.8 mph N/A   Scattered Clouds
11:43 AM 41.0 °F 32.8 °F 17.6 °F 39% 29.85 in 10.0 mi WNW 16.1 mph 27.6 mph N/A   Scattered Clouds
12:01 PM 41.0 °F 33.9 °F 15.8 °F 36% 29.84 in 10.0 mi West 12.7 mph 25.3 mph N/A   Clear
12:21 PM 42.8 °F 36.2 °F 15.8 °F 34% 29.84 in 10.0 mi West 12.7 mph 16.1 mph N/A   Clear
12:41 PM 41.0 °F 32.2 °F 10.4 °F 29% 29.84 in 10.0 mi West 18.4 mph 35.7 mph N/A   Clear
1:01 PM 41.0 °F 32.8 °F 12.2 °F 31% 29.84 in 10.0 mi WNW 16.1 mph 36.8 mph N/A   Clear
1:21 PM 41.0 °F 32.8 °F 10.4 °F 29% 29.85 in 10.0 mi WNW 16.1 mph 24.2 mph N/A   Clear
1:41 PM 41.0 °F 30.7 °F 5.0 °F 23% 29.85 in 10.0 mi West 25.3 mph 36.8 mph N/A   Clear
2:01 PM 41.0 °F 29.5 °F 5.0 °F 23% 29.84 in 10.0 mi West 32.2 mph 42.6 mph N/A   Clear
2:22 PM 41.0 °F 30.7 °F -0.4 °F 18% 29.85 in 10.0 mi NW 25.3 mph 38.0 mph N/A   Clear
3:01 PM 41.0 °F 30.0 °F 1.4 °F 19% 29.86 in 10.0 mi WNW 28.8 mph 40.3 mph N/A   Clear
3:21 PM 41.0 °F 32.8 °F 6.8 °F 24% 29.88 in 10.0 mi West 16.1 mph 35.7 mph N/A   Clear
4:01 PM 39.2 °F 28.5 °F 6.8 °F 26% 29.90 in 10.0 mi WNW 24.2 mph 33.4 mph N/A   Clear
4:21 PM 37.4 °F 26.6 °F 3.2 °F 24% 29.90 in 10.0 mi West 21.9 mph 31.1 mph N/A   Clear
4:41 PM 37.4 °F 26.9 °F 3.2 °F 24% 29.92 in 10.0 mi West 20.7 mph 28.8 mph N/A   Clear
5:01 PM 37.4 °F 29.8 °F 3.2 °F 24% 29.92 in 10.0 mi WNW 11.5 mph 25.3 mph N/A   Clear
5:21 PM 37.4 °F 30.8 °F 3.2 °F 24% 29.93 in 10.0 mi WNW 9.2 mph 28.8 mph N/A   Clear
5:42 PM 37.4 °F 28.5 °F 6.8 °F 28% 29.93 in 10.0 mi West 15.0 mph 25.3 mph N/A   Clear
6:01 PM 35.6 °F 25.5 °F 3.2 °F 26% 29.94 in 10.0 mi West 17.3 mph 21.9 mph N/A   Clear
6:21 PM 35.6 °F 25.2 °F 3.2 °F 26% 29.96 in 10.0 mi West 18.4 mph 28.8 mph N/A   Clear
6:41 PM 35.6 °F 26.6 °F 6.8 °F 30% 29.97 in 10.0 mi West 13.8 mph - N/A   Clear
7:01 PM 35.6 °F 24.5 °F 6.8 °F 30% 29.97 in 10.0 mi West 20.7 mph 26.5 mph N/A   Clear
7:21 PM 33.8 °F 23.2 °F 5.0 °F 30% 29.97 in 10.0 mi West 17.3 mph 32.2 mph N/A   Clear
7:41 PM 33.8 °F 23.2 °F 5.0 °F 30% 29.97 in 10.0 mi West 17.3 mph 29.9 mph N/A   Clear
8:01 PM 33.8 °F 23.2 °F 5.0 °F 30% 29.97 in 10.0 mi West 17.3 mph 25.3 mph N/A   Clear
8:21 PM 33.8 °F 23.5 °F 6.8 °F 32% 29.97 in 10.0 mi West 16.1 mph - N/A   Clear
8:41 PM 33.8 °F 23.2 °F 6.8 °F 32% 29.97 in 10.0 mi WNW 17.3 mph 25.3 mph N/A   Clear
9:02 PM 33.8 °F 21.9 °F 6.8 °F 32% 29.97 in 10.0 mi West 21.9 mph 26.5 mph N/A   Clear
9:21 PM 33.8 °F 22.5 °F 5.0 °F 30% 29.97 in 10.0 mi West 19.6 mph 33.4 mph N/A   Clear
9:41 PM 33.8 °F 23.5 °F 3.2 °F 28% 29.97 in 10.0 mi West 16.1 mph 26.5 mph N/A   Clear
10:01 PM 33.8 °F 24.3 °F 3.2 °F 28% 29.98 in 10.0 mi West 13.8 mph 23.0 mph N/A   Clear
10:21 PM 33.8 °F 21.3 °F 1.4 °F 25% 29.98 in 10.0 mi West 24.2 mph 28.8 mph N/A   Scattered Clouds
10:41 PM 33.8 °F 22.5 °F 3.2 °F 28% 29.98 in 10.0 mi West 19.6 mph 28.8 mph N/A   Clear
11:01 PM 33.8 °F 22.2 °F 3.2 °F 28% 29.98 in 10.0 mi West 20.7 mph 31.1 mph N/A   Clear
11:21 PM 33.8 °F 22.8 °F 3.2 °F 28% 29.98 in 10.0 mi West 18.4 mph 25.3 mph N/A   Clear
11:41 PM 33.8 °F 24.3 °F 1.4 °F 25% 29.98 in 10.0 mi West 13.8 mph 27.6 mph N/A   Clear